Logo AVAMET
Benvolgut visitant, si us plau, ingressa Recuperar contrasenya
AVAMET paisatges

Inforatge Dénia Madrigueres

Dades diàries. Acumulats / Últims 30 dies disponibles

Data Temperatura (°C) Humitat rel. (%) Pressió rel. (hPa) Vent (km/h) Precipitació
Mínima Mitjana Màxima Amplitud
tèrmica
Mínima Mitjana Màxima Mínima Mitjana Màxima Predom. Mitjana Ràfega
màxima
Total
(mm)
Índex-n
Mínima Mitjana Màxima Mínima Mitjana Màxima n
0 a 1
P0 max
mm 5'
Dades mensuals acumulades fins l'últim dia disponible
03/2020 7,3 12,0 17,9 15,3 11,8 18,9 25,9 18,6 26 71 97 1.002 1.018 1.028   7,0 66,0 83,8
Dades anuals acumulades fins l'últim dia disponible
2020 2,5 10,2 17,9 14,2 11,8 18,7 26,6 24,1 15 73 98 1.002 1.023 1.035   4,5 75,6 223,6
Últims 30 dies disponibles
27-03-2020 9,2     10,4     11,8 2,6 75 86 92 1.012 1.014 1.017 WNW 3,1 29,0 3,8 0,20
26-03-2020 7,3     11,8     15,6 8,3 41 72 92 1.008 1.010 1.014 NE 5,5 29,0 0,0
25-03-2020 9,2     11,1     13,4 4,2 63 80 93 1.015 1.017 1.018 WNW 5,6 33,8 8,2 0,54 1,60
24-03-2020 13,4     14,5     15,5 2,1 64 82 90 1.014 1.016 1.018 E 15,1 46,7 1,6
23-03-2020 11,4     14,1     17,0 5,6 82 91 97 1.014 1.016 1.017 E 4,0 27,4 13,8 0,20 3,20
22-03-2020 10,9     12,9     15,3 4,4 85 92 95 1.011 1.013 1.015 WNW 3,4 20,9 8,8 0,47 1,00
21-03-2020 11,2     13,7     14,6 3,4 86 91 96 1.012 1.014 1.017 NE 4,3 24,1 30,6 0,69 8,90
20-03-2020 12,8     14,5     16,6 3,8 75 84 92 1.017 1.019 1.020 NE 5,3 25,7 0,4
19-03-2020 13,7     15,0     16,9 3,2 80 88 92 1.021 1.023 1.025 NE 6,3 24,1 0,0
18-03-2020 14,1     14,6     15,8 1,7 83 89 95 1.025 1.026 1.028 NNE 8,5 29,0 0,0
17-03-2020 10,3     12,5     14,9 4,6 90 94 97 1.020 1.024 1.028 NNE 5,3 29,0 12,2 0,17 0,90
16-03-2020 10,4     13,4     18,8 8,4 67 85 92 1.011 1.014 1.020 E 2,7 30,6 4,4 0,32 0,40
15-03-2020 11,1     15,2     19,6 8,5 55 79 95 1.014 1.017 1.020 SE 4,8 33,8 0,0
14-03-2020 11,4     15,3     19,4 8,0 54 83 94 1.019 1.020 1.022 E 5,0 32,2 0,0
13-03-2020 13,3     14,8     16,7 3,4 81 89 96 1.018 1.020 1.021 NNW 5,8 29,0 0,0
12-03-2020 11,9     16,0     20,7 8,8 56 80 96 1.017 1.020 1.023 NNW 1,6 12,9 0,0
11-03-2020 11,2     17,9     25,9 14,7 31 64 93 1.021 1.023 1.024 E 3,2 25,7 0,0
10-03-2020 10,8     16,5     22,3 11,5 36 59 80 1.022 1.024 1.027 E 2,3 17,7 0,0
09-03-2020 12,9     16,6     22,1 9,2 33 55 87 1.020 1.022 1.024 WNW 3,7 27,4 0,0
08-03-2020 9,7     16,7     22,3 12,6 29 50 87 1.020 1.023 1.025 E 4,0 24,1 0,0
07-03-2020 11,3     14,6     18,0 6,7 38 43 54 1.020 1.022 1.024 WNW 12,7 46,7 0,0
06-03-2020 12,2     15,2     18,0 5,8 32 48 69 1.013 1.015 1.021 WNW 12,9 57,9 0,0
05-03-2020 15,7     19,9     25,1 9,4 37 47 58 1.008 1.012 1.017 WNW 11,4 51,5 0,0
04-03-2020 17,9     20,4     24,3 6,4 41 53 64 1.016 1.017 1.020 WNW 10,3 33,8 0,0
03-03-2020 11,4     16,8     22,6 11,2 37 44 57 1.011 1.015 1.018 WNW 13,7 48,3 0,0
02-03-2020 13,7     19,3     23,9 10,2 26 41 55 1.002 1.007 1.017 WNW 17,9 66,0 0,0
01-03-2020 16,9     19,4     22,4 5,5 39 48 56 1.011 1.014 1.016 WNW 9,7 41,8 0,0
29-02-2020 9,3     17,9     25,7 16,4 26 54 90 1.011 1.014 1.018 SO 3,0 30,6 0,0
28-02-2020 14,9     18,8     22,4 7,5 31 41 61 1.019 1.021 1.023 WNW 6,8 32,2 0,0
27-02-2020 9,4     17,2     23,8 14,4 28 52 89 1.018 1.020 1.021 WNW 3,5 29,0 0,0
Últims 13 mesos disponibles
02/2020 6,7 10,7 15,2 15,5 15,1 21,1 26,6 19,9 41 70 86 1.014 1.025 1.033 E 2,9 40,2 1,0
01/2020 2,5 8,1 15,8 12,1 13,3 16,3 22,7 20,2 57 77 96 1.015 1.025 1.032 WNW 4,0 75,6 138,8
12/2019 6,4 11,2 19,7 14,5 13,8 18,4 25,5 19,1 50 72 91 1.004 1.016 1.033 WNW 5,0 66,0 129,6
11/2019 6,6 13,0 21,9 16,5 15,3 20,1 27,7 21,1 42 56 79 999 1.011 1.018 WNW 8,1 54,7 10,6
10/2019 11,6 16,7 21,4 20,9 16,9 25,1 34,1 22,5 45 70 87 1.008 1.016 1.022 SSO 3,6 41,8 81,6
09/2019 14,5 20,6 24,6 24,5 24,0 28,3 35,2 20,7 50 75 92 1.010 1.017 1.023 SSO 5,7 70,9 181,4
08/2019 19,6 23,0 27,1 27,3 27,1 32,0 39,8 20,2 50 69 83 1.010 1.015 1.020 S 5,8 48,3 39,0
07/2019 21,5 23,2 26,9 27,4 27,7 31,7 38,2 16,7 44 67 84 1.006 1.014 1.021 S 6,2 53,7 1,6
06/2019 13,9 18,5 22,9 23,2 20,9 27,8 37,7 23,8 36 65 86 1.009 1.015 1.022 SSE 6,6 55,6 0,0
05/2019 10,6 15,0 20,6 19,4 18,9 24,1 31,5 20,9 49 67 85 1.005 1.015 1.024 S 5,8 55,6 10,0
04/2019 10,1 12,3 16,7 16,0 14,9 20,2 28,8 18,7 41 68 96 1.000 1.013 1.025 SSO 7,1 56,3 282,0
03/2019 6,9 10,1 16,1 15,1 14,3 19,7 28,0 21,1 28 63 90 1.011 1.023 1.030 S 4,9 53,7 46,0
02/2019 4,9 8,0 12,1 12,8 12,8 17,5 23,7 18,8 38 65 85 996 1.025 1.033 S 4,5 64,8 0,2
Tots els anys disponibles
2019 1,9 15,0 27,1 19,2 12,1 23,5 39,8 37,9 28 67 96 996 1.017 1.033 S 5,7 70,9 785,6
2018 2,9 15,2 27,2 19,1 8,3 23,2 37,9 35,0 34 67 94 993 1.016 1.034 S 5,5 66,7 612,4
2017 3,3 15,8 27,2 20,0 12,4 24,3 37,1 33,8 30 69 94 998 1.018 1.035 S 3,2 61,1 453,0
Temperatura (°C)
Humitat relativa (%)
Velocitat del vent i ràfega màxima (km/h)
Direcció del vent (°)
Pressió (hPa)
Precipitació (mm)
Nota sobre les dades: s'avisa a l'usuari de la provisionalitat i no oficialitat d'aquestes dades
Logo AVAMET blanc
Web allotjada a Sollutia
Llicència de Creative CommonsLa web d'AVAMET i els seus continguts estan subjectes a una llicència de
Reconeixement - No Comercial - Compartir igual
Últimes estacions:  Altea - Com. Regants (Soci), Almoines (Inforatge), Beniparrell (Inforatge), Albal (Inforatge), Almussafes - Parc Industrial (Inforatge), La Vilavella (Soci), la Serratella (soci) - - -